Flight Track Log - Related Links

Times and Time Zones

All times are in EDT time to prevent confusion due to time zone crossing. See the DAL268 flight status page for this flight to view local times or setup timezone preferences in your user account.

Time Position Orientation Groundspeed Altitude Reporting Facility
EDT Latitude Longitude Course Direction KTS MPH feet Rate Location/Type
Fri 02:47:13 PM 37.6180 -122.3740 90° East 155 178  Level FlightAware ADS-B
Fri 02:47:33 PM 37.6321 -122.3640 29° Northeast 174 200 700 2,438 Climbing FlightAware ADS-B
Fri 02:47:45 PM 37.6398 -122.3560 39° Northeast 180 207 1,300 2,222 Climbing FlightAware ADS-B
Fri 02:48:00 PM 37.6490 -122.3440 46° Northeast 195 224 1,700 1,548 Climbing FlightAware ADS-B
Fri 02:48:16 PM 37.6592 -122.3310 45° Northeast 218 251 2,100 1,548 Climbing FlightAware ADS-B
Fri 02:48:31 PM 37.6704 -122.3160 47° Northeast 237 273 2,500 1,800 Climbing FlightAware ADS-B
Fri 02:48:46 PM 37.6822 -122.3000 47° Northeast 255 293 3,000 2,323 Climbing FlightAware ADS-B
Fri 02:49:02 PM 37.6959 -122.2820 46° Northeast 267 307 3,700 2,710 Climbing FlightAware ADS-B
Fri 02:49:17 PM 37.7093 -122.2650 45° Northeast 272 313 4,400 3,064 Climbing FlightAware ADS-B
Fri 02:49:49 PM 37.7370 -122.2290 46° Northeast 279 321 6,100 2,933 Climbing FlightAware ADS-B
Fri 02:50:02 PM 37.7483 -122.2130 48° Northeast 271 312 6,600 2,769 Climbing FlightAware ADS-B
Fri 02:50:15 PM 37.7600 -122.1970 47° Northeast 288 331 7,300 3,158 Climbing FlightAware ADS-B
Fri 02:50:21 PM 37.7666 -122.1890 44° Northeast 288 331 7,600 3,000 Climbing FlightAware ADS-B
Fri 02:50:31 PM 37.7765 -122.1790 39° Northeast 289 333 8,100 2,914 Climbing FlightAware ADS-B
Fri 02:50:56 PM 37.8034 -122.1530 37° Northeast 296 341 9,300 2,780 Climbing FlightAware ADS-B
Fri 02:51:12 PM 37.8214 -122.1360 37° Northeast 302 348 10,000 1,915 Climbing FlightAware ADS-B
Fri 02:51:43 PM 37.8569 -122.1010 38° Northeast 332 382 10,800 1,333 Climbing FlightAware ADS-B
Fri 02:52:15 PM 37.8989 -122.0620 36° Northeast 367 422 11,400 1,452 Climbing FlightAware ADS-B
Fri 02:52:45 PM 37.9422 -122.0220 36° Northeast 388 447 12,300 2,032 Climbing FlightAware ADS-B
Fri 02:53:17 PM 37.9883 -121.9790 36° Northeast 399 459 13,500 2,241 Climbing FlightAware ADS-B
Fri 02:54:08 PM 38.0650 -121.9080 36° Northeast 412 474 15,400 2,318 Climbing FlightAware ADS-B
Fri 02:54:45 PM 38.1240 -121.8530 36° Northeast 420 483 16,900 2,261 Climbing FlightAware ADS-B
Fri 02:55:17 PM 38.1740 -121.8060 36° Northeast 428 493 18,000 2,029 Climbing FlightAware ADS-B
Fri 02:55:53 PM 38.2310 -121.7520 37° Northeast 436 502 19,200 2,000 Climbing FlightAware ADS-B
Fri 02:56:26 PM 38.2850 -121.7020 36° Northeast 442 509 20,300 1,765 Climbing FlightAware ADS-B
Fri 02:57:01 PM 38.3420 -121.6470 37° Northeast 453 521 21,200 1,667 Climbing FlightAware ADS-B
Fri 02:57:38 PM 38.4040 -121.5890 36° Northeast 460 529 22,300 1,750 Climbing FlightAware ADS-B
Fri 02:58:13 PM 38.4600 -121.5220 43° Northeast 467 537 23,300 1,457 Climbing FlightAware ADS-B
Fri 02:58:48 PM 38.5060 -121.4450 53° Northeast 478 550 24,000 1,324 Climbing FlightAware ADS-B
Fri 02:59:21 PM 38.5510 -121.3680 53° Northeast 484 557 24,800 1,478 Climbing FlightAware ADS-B
Fri 02:59:57 PM 38.6000 -121.2840 53° Northeast 489 563 25,700 1,371 Climbing FlightAware ADS-B
Fri 03:00:31 PM 38.6460 -121.2040 54° Northeast 496 571 26,400 1,235 Climbing FlightAware ADS-B
Fri 03:01:05 PM 38.6920 -121.1250 53° Northeast 502 578 27,100 973 Climbing FlightAware ADS-B
Fri 03:01:45 PM 38.7470 -121.0300 53° Northeast 515 593 27,600 892 Climbing FlightAware ADS-B
Fri 03:02:19 PM 38.7960 -120.9450 53° Northeast 522 601 28,200 1,235 Climbing FlightAware ADS-B
Fri 03:02:53 PM 38.8450 -120.8590 54° Northeast 525 604 29,000 1,478 Climbing FlightAware ADS-B
Fri 03:03:28 PM 38.8940 -120.7750 53° Northeast 522 601 29,900 1,565 Climbing FlightAware ADS-B
Fri 03:04:02 PM 38.9430 -120.6890 54° Northeast 519 597 30,800 1,565 Climbing FlightAware ADS-B
Fri 03:04:37 PM 38.9950 -120.6000 53° Northeast 516 594 31,700 1,478 Climbing FlightAware ADS-B
Fri 03:05:11 PM 39.0420 -120.5190 53° Northeast 514 592 32,500 1,371 Climbing FlightAware ADS-B
Fri 03:05:47 PM 39.0920 -120.4320 53° Northeast 513 590 33,300 1,250 Climbing FlightAware ADS-B
Fri 03:06:23 PM 39.1420 -120.3440 54° Northeast 512 589 34,000 1,315 Climbing FlightAware ADS-B
Fri 03:07:00 PM 39.1960 -120.2500 53° Northeast 505 581 34,900 870 Climbing FlightAware ADS-B
Fri 03:07:32 PM 39.2390 -120.1750 53° Northeast 505 581 35,000 88 Climbing FlightAware ADS-B
Fri 03:08:08 PM 39.2890 -120.0860 54° Northeast 506 582 35,000  Level FlightAware ADS-B
Fri 03:08:44 PM 39.3400 -119.9960 54° Northeast 504 580 35,000  Level FlightAware ADS-B
Fri 03:09:20 PM 39.3890 -119.9100 54° Northeast 508 585 35,000  Level FlightAware ADS-B
Fri 03:09:54 PM 39.4350 -119.8270 54° Northeast 509 586 35,000  Level FlightAware ADS-B
Fri 03:10:30 PM 39.4850 -119.7380 54° Northeast 512 589 35,000  Level FlightAware ADS-B
Fri 03:11:02 PM 39.5300 -119.6580 54° Northeast 513 590 35,000  Level FlightAware ADS-B
Fri 03:11:38 PM 39.5800 -119.5690 54° Northeast 512 589 35,000  Level FlightAware ADS-B
Fri 03:12:12 PM 39.6270 -119.4840 54° Northeast 511 588 35,000  Level FlightAware ADS-B
Fri 03:12:46 PM 39.6750 -119.3980 54° Northeast 511 588 35,000  Level FlightAware ADS-B
Fri 03:13:24 PM 39.7260 -119.3060 54° Northeast 510 587 35,000  Level FlightAware ADS-B
Fri 03:13:56 PM 39.7700 -119.2260 54° Northeast 510 587 35,000  Level FlightAware ADS-B
Fri 03:14:32 PM 39.8190 -119.1380 54° Northeast 507 583 35,000  Level FlightAware ADS-B
Fri 03:15:06 PM 39.8650 -119.0540 54° Northeast 506 582 35,000  Level FlightAware ADS-B
Fri 03:15:44 PM 39.9170 -118.9590 54° Northeast 504 580 35,000  Level FlightAware ADS-B
Fri 03:16:16 PM 39.9610 -118.8790 54° Northeast 503 579 35,000  Level FlightAware ADS-B
Fri 03:16:54 PM 40.0110 -118.7870 55° Northeast 502 578 35,000  Level FlightAware ADS-B
Fri 03:17:30 PM 40.0610 -118.6950 55° Northeast 502 578 35,000  Level FlightAware ADS-B
Fri 03:18:02 PM 40.1010 -118.6210 55° Northeast 499 574 35,000  Level FlightAware ADS-B
Fri 03:18:38 PM 40.1400 -118.5220 63° Northeast 493 567 35,000  Level FlightAware ADS-B
Fri 03:19:12 PM 40.1670 -118.4280 69° East 492 566 35,000  Level FlightAware ADS-B
Fri 03:19:48 PM 40.1950 -118.3270 70° East 490 564 35,000  Level FlightAware ADS-B
Fri 03:20:32 PM 40.2280 -118.2030 71° East 491 565 35,000  Level FlightAware ADS-B
Fri 03:21:14 PM 40.2570 -118.0990 70° East 489 563 35,000  Level FlightAware ADS-B
Fri 03:21:50 PM 40.2810 -118.0140 70° East 489 563 35,000  Level FlightAware ADS-B
Fri 03:22:27 PM 40.3050 -117.9260 70° East 489 563 35,000  Level FlightAware ADS-B
Fri 03:23:04 PM 40.3290 -117.8380 70° East 489 563 35,000  Level FlightAware ADS-B
Fri 03:23:40 PM 40.3530 -117.7530 70° East 489 563 35,000  Level FlightAware ADS-B
Fri 03:24:17 PM 40.3770 -117.6650 70° East 489 563 35,000  Level FlightAware ADS-B
Fri 03:24:53 PM 40.4010 -117.5800 70° East 489 563 35,000  Level FlightAware ADS-B
Fri 03:25:31 PM 40.4260 -117.4900 70° East 489 563 35,000  Level FlightAware ADS-B
Fri 03:26:07 PM 40.4500 -117.4040 70° East 489 563 35,000  Level FlightAware ADS-B
Fri 03:26:41 PM 40.4720 -117.3230 70° East 489 563 35,000  Level FlightAware ADS-B
Fri 03:27:17 PM 40.4960 -117.2380 70° East 489 563 35,000  Level FlightAware ADS-B
Fri 03:27:53 PM 40.5190 -117.1520 71° East 489 563 35,000  Level FlightAware ADS-B
Fri 03:28:29 PM 40.5430 -117.0670 70° East 489 563 35,000  Level FlightAware ADS-B
Fri 03:29:05 PM 40.5670 -116.9810 70° East 489 563 35,000  Level FlightAware ADS-B
Fri 03:29:41 PM 40.5900 -116.8950 71° East 489 563 35,000  Level FlightAware ADS-B
Fri 03:30:17 PM 40.6140 -116.8100 70° East 489 563 35,000 350 Level FlightAware ADS-B
Fri 03:35:24 PM 41.0100 -115.7800 63° Northeast 485 558 37,000 356 Climbing FlightAware ADS-B
Fri 03:35:54 PM 41.0403 -115.7000 63° Northeast 484 557 37,000  Level FlightAware ADS-B
Fri 03:36:50 PM 41.0966 -115.5510 63° Northeast 486 559 37,000  Level FlightAware ADS-B
Fri 03:37:32 PM 41.1330 -115.4550 63° Northeast 485 558 37,000  Level FlightAware ADS-B
Fri 03:38:08 PM 41.1710 -115.3530 64° Northeast 483 556 37,000  Level FlightAware ADS-B
Fri 03:38:22 PM 41.1881 -115.3060 64° Northeast 486 559 37,000  Level FlightAware ADS-B
Fri 03:38:53 PM 41.2181 -115.2260 63° Northeast 486 559 37,000  Level FlightAware ADS-B
Fri 03:39:23 PM 41.2483 -115.1440 64° Northeast 487 560 37,000  Level FlightAware ADS-B
Fri 03:39:53 PM 41.2781 -115.0640 64° Northeast 487 560 37,000  Level FlightAware ADS-B
Fri 03:40:24 PM 41.3082 -114.9820 64° Northeast 489 563 37,000  Level FlightAware ADS-B
Fri 03:40:54 PM 41.3389 -114.8980 64° Northeast 489 563 37,000  Level FlightAware ADS-B
Fri 03:41:25 PM 41.3693 -114.8150 64° Northeast 489 563 37,000  Level FlightAware ADS-B
Fri 03:42:03 PM 41.4066 -114.7130 64° Northeast 490 564 37,000  Level FlightAware ADS-B
Fri 03:42:33 PM 41.4366 -114.6310 64° Northeast 491 565 37,000  Level FlightAware ADS-B
Fri 03:43:06 PM 41.4690 -114.5420 64° Northeast 491 565 37,000  Level FlightAware ADS-B
Fri 03:43:36 PM 41.4987 -114.4600 64° Northeast 492 566 37,000  Level FlightAware ADS-B
Fri 03:44:08 PM 41.5303 -114.3720 64° Northeast 491 565 37,000  Level FlightAware ADS-B
Fri 03:44:40 PM 41.5615 -114.2860 64° Northeast 490 564 37,000  Level FlightAware ADS-B
Fri 03:45:10 PM 41.5911 -114.2030 64° Northeast 491 565 37,000  Level FlightAware ADS-B
Fri 03:45:41 PM 41.6207 -114.1210 64° Northeast 491 565 37,000  Level FlightAware ADS-B
Fri 03:46:11 PM 41.6504 -114.0380 64° Northeast 492 566 37,000  Level FlightAware ADS-B
Fri 03:46:42 PM 41.6802 -113.9540 65° Northeast 492 566 37,000  Level FlightAware ADS-B
Fri 03:47:19 PM 41.7162 -113.8520 65° Northeast 492 566 37,000  Level FlightAware ADS-B
Fri 03:47:56 PM 41.7525 -113.7500 64° Northeast 492 566 37,000  Level FlightAware ADS-B
Fri 03:48:30 PM 41.7856 -113.6550 65° Northeast 491 565 37,000  Level FlightAware ADS-B
Fri 03:49:08 PM 41.8220 -113.5520 65° Northeast 490 564 37,000  Level FlightAware ADS-B
Fri 03:49:51 PM 41.8620 -113.4360 65° Northeast 488 562 37,000  Level FlightAware ADS-B
Fri 03:50:15 PM 41.8858 -113.3690 64° Northeast 489 563 37,000  Level FlightAware ADS-B
Fri 03:50:52 PM 41.9212 -113.2670 65° Northeast 488 562 37,000  Level FlightAware ADS-B
Fri 03:51:23 PM 41.9505 -113.1820 65° Northeast 488 562 37,000  Level FlightAware ADS-B
Fri 03:51:54 PM 41.9796 -113.0980 65° Northeast 485 558 37,000  Level FlightAware ADS-B
Fri 03:52:28 PM 42.0116 -113.0050 65° Northeast 485 558 37,000  Level FlightAware ADS-B
Fri 03:53:05 PM 42.0459 -112.9050 65° Northeast 480 552 37,000  Level FlightAware ADS-B
Fri 03:53:41 PM 42.0793 -112.8070 65° Northeast 480 552 37,000  Level FlightAware ADS-B
Fri 03:54:26 PM 42.1212 -112.6840 65° Northeast 480 552 37,000  Level FlightAware ADS-B
Fri 03:54:57 PM 42.1490 -112.6030 65° Northeast 482 555 37,000  Level FlightAware ADS-B
Fri 03:55:12 PM 42.1634 -112.5590 66° East 482 555 37,000  Level FlightAware ADS-B
Fri 03:56:09 PM 42.2155 -112.4040 66° East 482 555 37,000  Level FlightAware ADS-B
Fri 03:56:47 PM 42.2489 -112.3020 66° East 480 552 37,000  Level FlightAware ADS-B
Fri 03:57:27 PM 42.2850 -112.1910 66° East 478 550 37,000  Level FlightAware ADS-B
Fri 03:57:41 PM 42.2972 -112.1530 67° East 478 550 37,000  Level FlightAware ADS-B
Fri 03:58:19 PM 42.3312 -112.0490 66° East 477 549 37,000  Level FlightAware ADS-B
Fri 03:58:50 PM 42.3581 -111.9660 66° East 475 547 37,000  Level FlightAware ADS-B
Fri 03:59:21 PM 42.3848 -111.8830 66° East 473 544 37,000  Level FlightAware ADS-B
Fri 03:59:51 PM 42.4113 -111.8000 67° East 477 549 37,000  Level FlightAware ADS-B
Fri 04:00:22 PM 42.4388 -111.7150 66° East 479 551 37,000  Level FlightAware ADS-B
Fri 04:01:02 PM 42.4735 -111.6060 67° East 479 551 37,000  Level FlightAware ADS-B
Fri 04:01:33 PM 42.5007 -111.5210 67° East 481 554 37,000  Level FlightAware ADS-B
Fri 04:02:32 PM 42.5480 -111.3730 67° East 482 555 37,000  Level FlightAware ADS-B
Fri 04:03:23 PM 42.5872 -111.2450 67° East 478 550 37,000  Level Salt Lake Center
Fri 04:04:25 PM 42.6400 -111.0781 67° East 481 554 37,000  Level Salt Lake Center
Fri 04:05:27 PM 42.6975 -110.8931 67° East 482 555 37,000  Level Salt Lake Center
Fri 04:06:29 PM 42.7539 -110.7106 67° East 483 556 37,000  Level Salt Lake Center
Fri 04:07:31 PM 42.8044 -110.5481 67° East 474 545 37,000  Level Salt Lake Center
Fri 04:08:33 PM 42.8614 -110.3625 67° East 475 547 37,000  Level Salt Lake Center
Fri 04:09:35 PM 42.9072 -110.2094 68° East 477 549 37,000  Level Salt Lake Center
Fri 04:10:37 PM 42.9619 -110.0247 68° East 472 543 37,000  Level Salt Lake Center
Fri 04:11:39 PM 43.0086 -109.8686 68° East 469 540 37,000  Level Salt Lake Center
Fri 04:12:41 PM 43.0603 -109.7019 67° East 471 542 37,000  Level Salt Lake Center
Fri 04:13:43 PM 43.1036 -109.5144 72° East 466 536 37,000  Level Salt Lake Center
Fri 04:14:46 PM 43.1350 -109.3544 75° East 460 529 37,000  Level Salt Lake Center
Fri 04:15:48 PM 43.1656 -109.1647 77° East 457 526 37,000  Level Salt Lake Center
Fri 04:16:50 PM 43.1939 -109.0028 76° East 456 525 37,000  Level Salt Lake Center
Fri 04:17:52 PM 43.2264 -108.8175 76° East 449 517 37,000  Level Salt Lake Center
Fri 04:18:54 PM 43.2561 -108.6561 76° East 454 522 37,000  Level Salt Lake Center
Fri 04:19:56 PM 43.2961 -108.4703 73° East 455 524 37,000  Level Salt Lake Center
Fri 04:20:58 PM 43.3311 -108.3089 73° East 459 528 37,000  Level Salt Lake Center
Fri 04:22:00 PM 43.3467 -108.1164 84° East 456 525 37,000  Level Salt Lake Center
Fri 04:23:02 PM 43.3469 -107.9483 90° East 458 527 37,000  Level Salt Lake Center
Fri 04:24:04 PM 43.3414 -107.7783 93° East 463 533 37,000  Level Salt Lake Center
Fri 04:25:06 PM 43.3314 -107.5781 94° East 469 540 37,000  Level Salt Lake Center
Fri 04:26:48 PM 43.3028 -107.2650 97° East 468 539 37,000  Level Denver Center
Fri 04:27:50 PM 43.2747 -107.1147 104° East 464 534 37,000  Level Denver Center
Fri 04:28:52 PM 43.2842 -106.9178 86° East 469 540 37,000  Level Denver Center
Fri 04:29:54 PM 43.3136 -106.7475 77° East 476 548 37,000  Level Denver Center
Fri 04:30:56 PM 43.3514 -106.5514 75° East 476 548 37,000  Level Denver Center
Fri 04:31:58 PM 43.3825 -106.3822 76° East 477 549 37,000  Level Denver Center
Fri 04:33:00 PM 43.4192 -106.1839 76° East 479 551 37,000  Level Denver Center
Fri 04:34:02 PM 43.4503 -106.0125 76° East 481 554 37,000  Level Denver Center
Fri 04:35:04 PM 43.4858 -105.8125 76° East 482 555 37,000  Level Denver Center
Fri 04:36:06 PM 43.5169 -105.6408 76° East 482 555 37,000  Level Denver Center
Fri 04:37:08 PM 43.5525 -105.4408 76° East 481 554 37,000  Level Denver Center
Fri 04:38:11 PM 43.5819 -105.2689 77° East 481 554 37,000  Level Denver Center
Fri 04:39:13 PM 43.6169 -105.0675 76° East 482 555 37,000  Level Denver Center
Fri 04:40:15 PM 43.6464 -104.8931 77° East 483 556 37,000  Level Denver Center
Fri 04:41:17 PM 43.6764 -104.7194 77° East 484 557 37,000  Level Denver Center
Fri 04:42:19 PM 43.7100 -104.5147 77° East 486 559 37,000  Level Denver Center
Fri 04:43:21 PM 43.7389 -104.3386 77° East 488 562 37,000  Level Denver Center
Fri 04:44:23 PM 43.7708 -104.1367 78° East 484 557 37,000  Level Denver Center
Fri 04:45:25 PM 43.7903 -103.9578 81° East 487 560 37,000  Level Denver Center
Fri 04:46:27 PM 43.8058 -103.7472 84° East 490 564 37,000  Level Denver Center
Fri 04:47:29 PM 43.8208 -103.5667 83° East 493 567 37,000  Level Denver Center
Fri 04:48:31 PM 43.8161 -103.3586 92° East 483 556 37,000  Level Denver Center
Fri 04:49:33 PM 43.8211 -103.1772 88° East 501 577 37,000  Level Denver Center
Fri 04:50:35 PM 43.8517 -102.9728 78° East 491 565 37,000  Level Denver Center
Fri 04:51:37 PM 43.8817 -102.7931 77° East 496 571 37,000  Level Denver Center
Fri 04:52:40 PM 43.9139 -102.6036 77° East 494 568 37,000  Level Denver Center
Fri 04:53:42 PM 43.9433 -102.4169 78° East 496 571 37,000  Level Denver Center
Fri 04:54:44 PM 43.9736 -102.2303 77° East 498 573 37,000  Level Denver Center
Fri 04:55:46 PM 44.0044 -102.0450 77° East 496 571 37,000  Level Denver Center
Fri 04:56:48 PM 44.0378 -101.8206 78° East 495 570 37,000  Level Denver Center
Fri 04:57:50 PM 44.0711 -101.6378 76° East 493 567 37,000  Level Denver Center
Fri 04:58:52 PM 44.1014 -101.4522 77° East 493 567 37,000  Level Denver Center
Fri 04:59:54 PM 44.1261 -101.2611 80° East 501 577 37,000  Level Denver Center
Fri 05:00:56 PM 44.1558 -101.0736 77° East 500 575 37,000 194 Level Denver Center
Fri 05:01:58 PM 44.1925 -100.8497 77° East 497 572 37,400 542 Climbing Denver Center
Fri 05:03:20 PM 44.2278 -100.6272 77° East 498 573 38,300 667 Climbing Minneapolis Center
Fri 05:04:22 PM 44.2611 -100.4019 78° East 497 572 39,000 339 Climbing Minneapolis Center
Fri 05:05:24 PM 44.2839 -100.2489 78° East 503 579 39,000  Level Minneapolis Center
Fri 05:06:26 PM 44.3178 -100.0203 78° East 505 581 39,000  Level Minneapolis Center
Fri 05:07:28 PM 44.3456 -99.8294 78° East 506 582 39,000  Level Minneapolis Center
Fri 05:08:30 PM 44.3725 -99.6364 79° East 509 586 39,000  Level Minneapolis Center
Fri 05:13:58 PM 44.5250 -98.5260 79° East 519 597 39,000  Level FlightAware ADS-B
Fri 05:14:35 PM 44.5390 -98.4200 79° East 519 597 39,000  Level FlightAware ADS-B
Fri 05:15:08 PM 44.5550 -98.2930 80° East 519 597 39,000  Level FlightAware ADS-B
Fri 05:15:46 PM 44.5710 -98.1700 80° East 520 598 39,000  Level FlightAware ADS-B
Fri 05:16:15 PM 44.5830 -98.0740 80° East 520 598 39,000  Level FlightAware ADS-B
Fri 05:17:30 PM 44.6040 -97.8210 83° East 522 601 39,000  Level FlightAware ADS-B
Fri 05:18:02 PM 44.6100 -97.7170 85° East 523 602 39,000  Level FlightAware ADS-B
Fri 05:18:38 PM 44.6160 -97.5950 86° East 525 604 39,000  Level FlightAware ADS-B
Fri 05:19:14 PM 44.6220 -97.4690 86° East 527 606 39,000  Level FlightAware ADS-B
Fri 05:19:45 PM 44.6270 -97.3670 86° East 529 609 39,000  Level FlightAware ADS-B
Fri 05:20:22 PM 44.6340 -97.2360 86° East 530 610 39,000  Level FlightAware ADS-B
Fri 05:20:58 PM 44.6390 -97.1150 87° East 531 611 39,000  Level FlightAware ADS-B
Fri 05:21:32 PM 44.6450 -96.9990 86° East 532 612 39,000  Level FlightAware ADS-B
Fri 05:22:09 PM 44.6510 -96.8770 86° East 533 613 39,000  Level FlightAware ADS-B
Fri 05:22:41 PM 44.6560 -96.7620 86° East 536 617 39,000  Level FlightAware ADS-B
Fri 05:23:17 PM 44.6610 -96.6360 87° East 536 617 39,000  Level FlightAware ADS-B
Fri 05:23:55 PM 44.6670 -96.5080 86° East 537 618 39,000  Level FlightAware ADS-B
Fri 05:24:31 PM 44.6720 -96.3800 87° East 537 618 39,000  Level FlightAware ADS-B
Fri 05:25:03 PM 44.6770 -96.2670 86° East 537 618 39,000  Level FlightAware ADS-B
Fri 05:25:31 PM 44.6800 -96.1700 87° East 538 619 39,000  Level FlightAware ADS-B
Fri 05:26:07 PM 44.6850 -96.0470 87° East 539 620 39,000  Level FlightAware ADS-B
Fri 05:26:43 PM 44.6900 -95.9170 87° East 539 620 39,000  Level FlightAware ADS-B
Fri 05:27:23 PM 44.6950 -95.7830 87° East 540 621 39,000  Level FlightAware ADS-B
Fri 05:27:57 PM 44.6990 -95.6580 87° East 541 623 39,000  Level FlightAware ADS-B
Fri 05:28:35 PM 44.7040 -95.5270 87° East 540 621 39,000  Level FlightAware ADS-B
Fri 05:29:11 PM 44.7080 -95.3990 87° East 540 621 39,000  Level FlightAware ADS-B
Fri 05:29:43 PM 44.7110 -95.2860 88° East 541 623 39,000  Level FlightAware ADS-B
Fri 05:30:17 PM 44.7150 -95.1670 87° East 541 623 39,000  Level FlightAware ADS-B
Fri 05:30:55 PM 44.7190 -95.0360 87° East 542 624 39,000  Level FlightAware ADS-B
Fri 05:31:28 PM 44.7220 -94.9260 88° East 542 624 39,000  Level FlightAware ADS-B
Fri 05:32:05 PM 44.7260 -94.7920 88° East 541 623 39,000  Level FlightAware ADS-B
Fri 05:32:37 PM 44.7290 -94.6770 88° East 541 623 39,000  Level FlightAware ADS-B
Fri 05:33:15 PM 44.7320 -94.5460 88° East 541 623 39,000  Level FlightAware ADS-B
Fri 05:33:47 PM 44.7350 -94.4310 88° East 541 623 39,000  Level FlightAware ADS-B
Fri 05:34:24 PM 44.7380 -94.3050 88° East 543 625 39,000  Level FlightAware ADS-B
Fri 05:34:59 PM 44.7410 -94.1830 88° East 544 626 39,000  Level FlightAware ADS-B
Fri 05:35:34 PM 44.7430 -94.0560 89° East 544 626 39,000  Level FlightAware ADS-B
Fri 05:36:09 PM 44.7460 -93.9320 88° East 545 627 39,000  Level FlightAware ADS-B
Fri 05:36:45 PM 44.7480 -93.8050 89° East 544 626 39,000  Level FlightAware ADS-B
Fri 05:37:30 PM 44.7510 -93.6630 88° East 545 627 39,000  Level FlightAware ADS-B
Fri 05:38:09 PM 44.7530 -93.5080 89° East 546 628 39,000  Level FlightAware ADS-B
Fri 05:38:49 PM 44.7550 -93.3670 89° East 546 628 39,000  Level FlightAware ADS-B
Fri 05:39:23 PM 44.7560 -93.2510 89° East 547 629 39,000  Level FlightAware ADS-B
Fri 05:40:01 PM 44.7550 -93.1120 91° East 546 628 39,000  Level FlightAware ADS-B
Fri 05:40:31 PM 44.7520 -93.0050 92° East 547 629 39,000  Level FlightAware ADS-B
Fri 05:41:17 PM 44.7470 -92.8440 92° East 548 631 39,000  Level FlightAware ADS-B
Fri 05:41:49 PM 44.7430 -92.7270 93° East 549 632 39,000  Level FlightAware ADS-B
Fri 05:42:27 PM 44.7390 -92.5950 92° East 549 632 39,000  Level FlightAware ADS-B
Fri 05:43:07 PM 44.7340 -92.4510 93° East 549 632 39,000  Level FlightAware ADS-B
Fri 05:43:43 PM 44.7300 -92.3230 92° East 549 632 39,000  Level FlightAware ADS-B
Fri 05:44:19 PM 44.7250 -92.1940 93° East 549 632 39,000  Level FlightAware ADS-B
Fri 05:44:55 PM 44.7200 -92.0670 93° East 550 633 39,000  Level FlightAware ADS-B
Fri 05:45:28 PM 44.7160 -91.9540 93° East 550 633 39,000  Level FlightAware ADS-B
Fri 05:46:05 PM 44.7110 -91.8140 93° East 551 634 39,000  Level FlightAware ADS-B
Fri 05:46:39 PM 44.7060 -91.6940 93° East 552 635 39,000  Level FlightAware ADS-B
Fri 05:47:15 PM 44.7010 -91.5670 93° East 553 636 39,000  Level FlightAware ADS-B
Fri 05:47:47 PM 44.6960 -91.4530 93° East 554 638 39,000  Level FlightAware ADS-B
Fri 05:48:22 PM 44.6900 -91.3260 94° East 553 636 39,000  Level FlightAware ADS-B
Fri 05:48:59 PM 44.6840 -91.1910 94° East 555 639 39,000  Level FlightAware ADS-B
Fri 05:49:38 PM 44.6780 -91.0530 93° East 556 640 39,000  Level FlightAware ADS-B
Fri 05:50:14 PM 44.6720 -90.9240 94° East 556 640 39,000  Level FlightAware ADS-B
Fri 05:50:52 PM 44.6660 -90.7910 94° East 555 639 39,000  Level FlightAware ADS-B
Fri 05:51:27 PM 44.6590 -90.6640 94° East 556 640 39,000  Level FlightAware ADS-B
Fri 05:52:04 PM 44.6530 -90.5290 94° East 556 640 39,000  Level FlightAware ADS-B
Fri 05:52:38 PM 44.6460 -90.4060 95° East 556 640 39,000  Level FlightAware ADS-B
Fri 05:53:11 PM 44.6400 -90.2910 94° East 556 640 39,000  Level FlightAware ADS-B
Fri 05:53:45 PM 44.6330 -90.1660 94° East 557 641 39,000  Level FlightAware ADS-B
Fri 05:54:23 PM 44.6260 -90.0300 94° East 557 641 39,000  Level FlightAware ADS-B
Fri 05:54:55 PM 44.6200 -89.9170 94° East 557 641 39,000  Level FlightAware ADS-B
Fri 05:55:29 PM 44.6130 -89.7920 94° East 558 642 39,000  Level FlightAware ADS-B
Fri 05:56:01 PM 44.6060 -89.6750 95° East 559 643 39,000  Level FlightAware ADS-B
Fri 05:56:41 PM 44.5970 -89.5320 95° East 560 644 39,000  Level FlightAware ADS-B
Fri 05:57:18 PM 44.5890 -89.4030 95° East 561 646 39,000  Level FlightAware ADS-B
Fri 05:57:52 PM 44.5810 -89.2750 95° East 561 646 39,000  Level FlightAware ADS-B
Fri 05:58:28 PM 44.5740 -89.1500 94° East 562 647 39,000  Level FlightAware ADS-B
Fri 05:59:04 PM 44.5650 -89.0210 96° East 562 647 39,000  Level FlightAware ADS-B
Fri 05:59:26 PM 44.5610 -88.9450 94° East 562 647 39,000  Level FlightAware ADS-B
Fri 06:00:04 PM 44.5510 -88.8010 96° East 562 647 39,000  Level FlightAware ADS-B
Fri 06:00:41 PM 44.5420 -88.6690 95° East 560 644 39,000  Level FlightAware ADS-B
Fri 06:01:14 PM 44.5310 -88.5440 97° East 562 647 39,000  Level FlightAware ADS-B
Fri 06:01:45 PM 44.5240 -88.4390 95° East 563 648 39,000  Level FlightAware ADS-B
Fri 06:02:26 PM 44.5130 -88.2830 96° East 564 649 39,000  Level FlightAware ADS-B
Fri 06:03:12 PM 44.5020 -88.1180 95° East 566 651 39,000  Level FlightAware ADS-B
Fri 06:03:48 PM 44.4930 -87.9870 95° East 566 651 39,000  Level FlightAware ADS-B
Fri 06:04:22 PM 44.4840 -87.8710 96° East 567 652 39,000  Level FlightAware ADS-B
Fri 06:05:00 PM 44.4740 -87.7350 96° East 568 654 39,000  Level FlightAware ADS-B
Fri 06:05:34 PM 44.4640 -87.6010 96° East 569 655 39,000  Level FlightAware ADS-B
Fri 06:06:04 PM 44.4560 -87.4970 96° East 570 656 39,000  Level FlightAware ADS-B
Fri 06:06:41 PM 44.4440 -87.3560 97° East 570 656 39,000  Level FlightAware ADS-B
Fri 06:07:19 PM 44.4340 -87.2190 96° East 571 657 39,000  Level FlightAware ADS-B
Fri 06:07:56 PM 44.4230 -87.0830 96° East 571 657 39,000  Level FlightAware ADS-B
Fri 06:08:28 PM 44.4130 -86.9660 97° East 572 658 39,000  Level FlightAware ADS-B
Fri 06:09:01 PM 44.4030 -86.8460 97° East 573 659 39,000  Level FlightAware ADS-B
Fri 06:09:35 PM 44.3920 -86.7160 97° East 573 659 39,000  Level FlightAware ADS-B
Fri 06:10:16 PM 44.3800 -86.5700 97° East 574 661 39,000  Level FlightAware ADS-B
Fri 06:10:47 PM 44.3700 -86.4540 97° East 575 662 39,000  Level FlightAware ADS-B
Fri 06:11:23 PM 44.3580 -86.3180 97° East 575 662 39,000  Level FlightAware ADS-B
Fri 06:12:01 PM 44.3410 -86.1950 101° East 569 655 39,000  Level FlightAware ADS-B
Fri 06:12:31 PM 44.3080 -86.0820 112° Southeast 557 641 39,000  Level FlightAware ADS-B
Fri 06:13:08 PM 44.2580 -85.9760 123° Southeast 542 624 39,000  Level FlightAware ADS-B
Fri 06:13:43 PM 44.2030 -85.8770 128° Southeast 543 625 39,000  Level FlightAware ADS-B
Fri 06:14:14 PM 44.1570 -85.7950 128° Southeast 542 624 39,000  Level FlightAware ADS-B
Fri 06:14:53 PM 44.0950 -85.6850 128° Southeast 542 624 39,000  Level FlightAware ADS-B
Fri 06:15:29 PM 44.0400 -85.5870 128° Southeast 541 623 39,000  Level FlightAware ADS-B
Fri 06:16:05 PM 43.9840 -85.4880 128° Southeast 540 621 39,000  Level FlightAware ADS-B
Fri 06:16:35 PM 43.9380 -85.4070 128° Southeast 539 620 39,000  Level FlightAware ADS-B
Fri 06:17:13 PM 43.8800 -85.3050 128° Southeast 539 620 39,000  Level FlightAware ADS-B
Fri 06:17:47 PM 43.8270 -85.2130 129° Southeast 540 621 39,000  Level FlightAware ADS-B
Fri 06:18:25 PM 43.7680 -85.1090 128° Southeast 540 621 39,000  Level FlightAware ADS-B
Fri 06:18:50 PM 43.7300 -85.0440 129° Southeast 540 621 39,000  Level FlightAware ADS-B
Fri 06:19:25 PM 43.6750 -84.9470 128° Southeast 540 621 39,000  Level FlightAware ADS-B
Fri 06:20:02 PM 43.6180 -84.8490 129° Southeast 540 621 39,000  Level FlightAware ADS-B
Fri 06:20:37 PM 43.5630 -84.7540 129° Southeast 541 623 39,000  Level FlightAware ADS-B
Fri 06:21:09 PM 43.5120 -84.6670 129° Southeast 542 624 39,000  Level FlightAware ADS-B
Fri 06:21:47 PM 43.4520 -84.5650 129° Southeast 544 626 39,000  Level FlightAware ADS-B
Fri 06:22:21 PM 43.3980 -84.4730 129° Southeast 544 626 39,000  Level FlightAware ADS-B
Fri 06:22:57 PM 43.3430 -84.3790 129° Southeast 544 626 39,000  Level FlightAware ADS-B
Fri 06:23:29 PM 43.2910 -84.2900 129° Southeast 543 625 39,000  Level FlightAware ADS-B
Fri 06:24:05 PM 43.2350 -84.1950 129° Southeast 544 626 39,000  Level FlightAware ADS-B
Fri 06:24:42 PM 43.1770 -84.0980 129° Southeast 543 625 39,000  Level FlightAware ADS-B
Fri 06:25:12 PM 43.1300 -84.0200 130° Southeast 542 624 39,000  Level FlightAware ADS-B
Fri 06:25:51 PM 43.0770 -83.9070 123° Southeast 555 639 39,000  Level FlightAware ADS-B
Fri 06:26:27 PM 43.0450 -83.7860 110° East 565 650 39,000  Level FlightAware ADS-B
Fri 06:27:04 PM 43.0240 -83.6610 103° East 565 650 39,000  Level FlightAware ADS-B
Fri 06:27:36 PM 43.0060 -83.5520 103° East 565 650 39,000  Level FlightAware ADS-B
Fri 06:28:12 PM 42.9840 -83.4160 102° East 565 650 39,000  Level FlightAware ADS-B
Fri 06:28:48 PM 42.9640 -83.2950 103° East 565 650 39,000  Level FlightAware ADS-B
Fri 06:29:20 PM 42.9460 -83.1840 102° East 565 650 39,000  Level FlightAware ADS-B
Fri 06:29:56 PM 42.9250 -83.0580 103° East 565 650 39,000  Level FlightAware ADS-B
Fri 06:30:34 PM 42.9020 -82.9260 103° East 564 649 39,000  Level FlightAware ADS-B
Fri 06:31:05 PM 42.8850 -82.8230 103° East 563 648 39,000  Level FlightAware ADS-B
Fri 06:31:42 PM 42.8620 -82.6920 103° East 564 649 39,000  Level FlightAware ADS-B
Fri 06:32:16 PM 42.8420 -82.5750 103° East 563 648 39,000  Level FlightAware ADS-B
Fri 06:32:57 PM 42.8190 -82.4410 103° East 564 649 39,000  Level FlightAware ADS-B
Fri 06:33:39 PM 42.7940 -82.2950 103° East 562 647 39,000  Level FlightAware ADS-B
Fri 06:34:15 PM 42.7710 -82.1670 104° East 563 648 39,000  Level FlightAware ADS-B
Fri 06:34:51 PM 42.7500 -82.0470 103° East 563 648 39,000  Level FlightAware ADS-B
Fri 06:35:27 PM 42.7270 -81.9180 104° East 562 647 39,000  Level FlightAware ADS-B
Fri 06:36:09 PM 42.7040 -81.7880 103° East 562 647 39,000  Level FlightAware ADS-B
Fri 06:36:45 PM 42.6800 -81.6580 104° East 560 644 39,000  Level FlightAware ADS-B
Fri 06:37:17 PM 42.6600 -81.5490 104° East 560 644 39,000  Level FlightAware ADS-B
Fri 06:37:53 PM 42.6360 -81.4190 104° East 560 644 39,000  Level FlightAware ADS-B
Fri 06:38:29 PM 42.6150 -81.3060 104° East 560 644 39,000  Level FlightAware ADS-B
Fri 06:38:59 PM 42.5970 -81.2060 104° East 560 644 39,000  Level FlightAware ADS-B
Fri 06:39:37 PM 42.5710 -81.0670 104° East 560 644 39,000  Level FlightAware ADS-B
Fri 06:40:14 PM 42.5470 -80.9420 105° East 556 640 39,000  Level FlightAware ADS-B
Fri 06:40:46 PM 42.5270 -80.8340 104° East 548 631 39,000  Level FlightAware ADS-B
Fri 06:41:22 PM 42.5040 -80.7150 105° East 543 625 39,000  Level FlightAware ADS-B
Fri 06:42:00 PM 42.4810 -80.5900 104° East 540 621 39,000  Level FlightAware ADS-B
Fri 06:42:32 PM 42.4600 -80.4860 105° East 544 626 39,000  Level FlightAware ADS-B
Fri 06:43:10 PM 42.4360 -80.3610 105° East 545 627 39,000  Level FlightAware ADS-B
Fri 06:43:46 PM 42.4140 -80.2440 104° East 543 625 39,000  Level FlightAware ADS-B
Fri 06:44:18 PM 42.3930 -80.1390 105° East 544 626 39,000  Level FlightAware ADS-B
Fri 06:45:00 PM 42.3660 -80.0000 105° East 548 631 39,000  Level FlightAware ADS-B
Fri 06:45:38 PM 42.3410 -79.8740 105° East 553 636 39,000  Level FlightAware ADS-B
Fri 06:46:10 PM 42.3190 -79.7660 105° East 555 639 39,000  Level FlightAware ADS-B
Fri 06:46:46 PM 42.2950 -79.6470 105° East 556 640 39,000  Level FlightAware ADS-B
Fri 06:47:22 PM 42.2700 -79.5290 106° East 554 638 39,000  Level FlightAware ADS-B
Fri 06:48:04 PM 42.2360 -79.3890 108° East 552 635 39,000  Level FlightAware ADS-B
Fri 06:48:40 PM 42.2070 -79.2720 108° East 551 634 39,000  Level FlightAware ADS-B
Fri 06:49:12 PM 42.1820 -79.1670 108° East 549 632 39,000  Level FlightAware ADS-B
Fri 06:49:48 PM 42.1540 -79.0500 108° East 548 631 39,000  Level FlightAware ADS-B
Fri 06:50:24 PM 42.1260 -78.9330 108° East 550 633 39,000  Level FlightAware ADS-B
Fri 06:50:54 PM 42.1030 -78.8390 108° East 553 636 39,000  Level FlightAware ADS-B
Fri 06:51:34 PM 42.0700 -78.7040 108° East 555 639 39,000  Level FlightAware ADS-B
Fri 06:52:06 PM 42.0450 -78.6000 108° East 555 639 39,000  Level FlightAware ADS-B
Fri 06:52:42 PM 42.0160 -78.4820 108° East 555 639 39,000  Level FlightAware ADS-B
Fri 06:53:14 PM 41.9910 -78.3820 109° East 553 636 39,000  Level FlightAware ADS-B
Fri 06:53:53 PM 41.9590 -78.2520 108° East 551 634 39,000  Level FlightAware ADS-B
Fri 06:54:25 PM 41.9330 -78.1470 108° East 549 632 39,000  Level FlightAware ADS-B
Fri 06:55:01 PM 41.9060 -78.0380 108° East 547 629 39,000  Level FlightAware ADS-B
Fri 06:55:37 PM 41.8750 -77.9180 109° East 546 628 39,000  Level FlightAware ADS-B
Fri 06:56:15 PM 41.8450 -77.7980 109° East 542 624 39,000  Level FlightAware ADS-B
Fri 06:56:47 PM 41.8190 -77.6940 109° East 542 624 39,000  Level FlightAware ADS-B
Fri 06:57:23 PM 41.7900 -77.5820 109° East 541 623 39,000  Level FlightAware ADS-B
Fri 06:57:59 PM 41.7600 -77.4670 109° East 540 621 39,000  Level FlightAware ADS-B
Fri 06:58:31 PM 41.7360 -77.3700 108° East 540 621 39,000  Level FlightAware ADS-B
Fri 06:59:07 PM 41.7050 -77.2530 110° East 537 618 39,000  Level FlightAware ADS-B
Fri 06:59:42 PM 41.6770 -77.1450 109° East 537 618 39,000  Level FlightAware ADS-B
Fri 07:00:23 PM 41.6425 -77.0164 110° East 537 618 39,000  Level FlightAware ADS-B
Fri 07:00:54 PM 41.6154 -76.9175 110° East 537 618 39,000  Level FlightAware ADS-B
Fri 07:01:26 PM 41.5880 -76.8174 110° East 540 621 39,000  Level FlightAware ADS-B
Fri 07:01:57 PM 41.5615 -76.7205 110° East 541 623 39,000  Level FlightAware ADS-B
Fri 07:02:29 PM 41.5342 -76.6211 110° East 540 621 39,000  Level FlightAware ADS-B
Fri 07:02:59 PM 41.5081 -76.5269 110° East 540 621 39,000  Level FlightAware ADS-B
Fri 07:03:31 PM 41.4810 -76.4288 110° East 542 624 39,000 -92 Level FlightAware ADS-B
Fri 07:04:04 PM 41.4527 -76.3266 110° East 539 620 38,900 -952 Descending FlightAware ADS-B
Fri 07:04:34 PM 41.4263 -76.2323 110° East 533 613 38,000 -2,261 Descending FlightAware ADS-B
Fri 07:05:13 PM 41.3930 -76.1135 110° East 537 618 36,300 -2,743 Descending FlightAware ADS-B
Fri 07:05:44 PM 41.3661 -76.0182 111° Southeast 542 624 34,800 -2,952 Descending FlightAware ADS-B
Fri 07:06:16 PM 41.3376 -75.9173 111° Southeast 541 623 33,200 -2,903 Descending FlightAware ADS-B
Fri 07:06:46 PM 41.3112 -75.8240 111° Southeast 539 620 31,800 -2,852 Descending FlightAware ADS-B
Fri 07:07:17 PM 41.2840 -75.7293 111° Southeast 532 612 30,300 -3,059 Descending FlightAware ADS-B
Fri 07:07:37 PM 41.2656 -75.6690 112° Southeast 529 609 29,200 -3,412 Descending FlightAware ADS-B
Fri 07:08:08 PM 41.2355 -75.5766 113° Southeast 531 611 27,400 -3,524 Descending FlightAware ADS-B
Fri 07:08:40 PM 41.2035 -75.4811 114° Southeast 532 612 25,500 -3,238 Descending FlightAware ADS-B
Fri 07:09:11 PM 41.1725 -75.3887 114° Southeast 525 604 24,000 -2,323 Descending FlightAware ADS-B
Fri 07:09:42 PM 41.1426 -75.3002 114° Southeast 512 589 23,100 -968 Descending FlightAware ADS-B
Fri 07:10:13 PM 41.1132 -75.2134 114° Southeast 507 583 23,000 -98 Descending FlightAware ADS-B
Fri 07:10:43 PM 41.0839 -75.1271 114° Southeast 505 581 23,000  Level FlightAware ADS-B
Fri 07:11:15 PM 41.0535 -75.0380 114° Southeast 509 586 23,000 -290 Level FlightAware ADS-B
Fri 07:11:45 PM 41.0245 -74.9527 114° Southeast 504 580 22,700 -769 Descending FlightAware ADS-B
Fri 07:11:54 PM 41.0162 -74.9279 114° Southeast 503 579 22,500 -1,714 Descending FlightAware ADS-B
Fri 07:12:13 PM 41.0012 -74.8721 110° East 498 573 21,900 -2,250 Descending FlightAware ADS-B
Fri 07:12:34 PM 40.9902 -74.8118 104° East 495 570 21,000 -2,588 Descending FlightAware ADS-B
Fri 07:13:04 PM 40.9793 -74.7223 99° East 488 562 19,700 -1,839 Descending FlightAware ADS-B
Fri 07:13:36 PM 40.9697 -74.6310 98° East 458 527 19,100 -677 Descending FlightAware ADS-B
Fri 07:14:06 PM 40.9609 -74.5485 98° East 447 514 19,000 -98 Descending FlightAware ADS-B
Fri 07:14:37 PM 40.9520 -74.4656 98° East 450 518 19,000  Level FlightAware ADS-B
Fri 07:15:07 PM 40.9431 -74.3849 98° East 439 505 19,000  Level FlightAware ADS-B
Fri 07:15:38 PM 40.9344 -74.3060 98° East 404 465 19,000  Level FlightAware ADS-B
Fri 07:15:48 PM 40.9315 -74.2823 99° East 393 452 19,000  Level FlightAware ADS-B
Fri 07:16:00 PM 40.9257 -74.2555 106° East 380 437 19,000  Level FlightAware ADS-B
Fri 07:16:07 PM 40.9206 -74.2405 114° Southeast 371 427 19,000  Level FlightAware ADS-B
Fri 07:16:14 PM 40.9143 -74.2270 122° Southeast 366 421 19,000  Level FlightAware ADS-B
Fri 07:16:21 PM 40.9065 -74.2141 129° Southeast 359 413 19,000  Level FlightAware ADS-B
Fri 07:16:28 PM 40.8987 -74.2041 136° Southeast 355 409 19,000 -1,297 Level FlightAware ADS-B
Fri 07:16:58 PM 40.8604 -74.1639 142° Southeast 354 407 18,200 -1,525 Descending FlightAware ADS-B
Fri 07:17:27 PM 40.8234 -74.1242 141° Southeast 352 405 17,500 -1,355 Descending FlightAware ADS-B
Fri 07:17:29 PM 40.8206 -74.1212 141° Southeast 352 405 17,500 -1,355 Level FlightAware ADS-B
Fri 07:17:58 PM 40.7843 -74.0822 141° Southeast 350 403 16,800 -1,500 Descending FlightAware ADS-B
Fri 07:18:01 PM 40.7812 -74.0791 143° Southeast 351 404 16,700 -1,579 Descending FlightAware ADS-B
Fri 07:18:17 PM 40.7603 -74.0579 142° Southeast 347 399 16,300 -1,440 Descending FlightAware ADS-B
Fri 07:18:26 PM 40.7478 -74.0489 151° Southeast 339 390 16,100 -1,317 Descending FlightAware ADS-B
Fri 07:18:58 PM 40.7017 -74.0269 160° South 334 384 15,400 -1,333 Descending FlightAware ADS-B
Fri 07:19:29 PM 40.6561 -74.0063 161° South 331 381 14,700 -1,345 Descending FlightAware ADS-B
Fri 07:19:56 PM 40.6176 -73.9891 161° South 327 376 14,100 -1,355 Descending FlightAware ADS-B
Fri 07:20:31 PM 40.5657 -73.9758 169° South 316 364 13,300 -896 Descending FlightAware ADS-B
Fri 07:21:03 PM 40.5204 -73.9673 172° South 311 358 13,100 -190 Descending FlightAware ADS-B
Fri 07:21:34 PM 40.4768 -73.9597 172° South 310 357 13,100 -295 Level FlightAware ADS-B
Fri 07:22:04 PM 40.4340 -73.9528 173° South 308 354 12,800 -1,000 Descending FlightAware ADS-B
Fri 07:22:28 PM 40.3993 -73.9467 172° South 307 353 12,200 -1,404 Descending FlightAware ADS-B
Fri 07:22:51 PM 40.3675 -73.9417 173° South 304 350 11,700 -1,286 Descending FlightAware ADS-B
Fri 07:22:56 PM 40.3604 -73.9399 169° South 305 351 11,600 -1,412 Descending FlightAware ADS-B
Fri 07:23:08 PM 40.3445 -73.9315 158° South 311 358 11,300 -1,385 Descending FlightAware ADS-B
Fri 07:23:22 PM 40.3294 -73.9163 142° Southeast 315 362 11,000 -1,500 Descending FlightAware ADS-B
Fri 07:23:28 PM 40.3234 -73.9062 128° Southeast 317 365 10,800 -1,500 Descending FlightAware ADS-B
Fri 07:23:42 PM 40.3152 -73.8829 115° Southeast 321 369 10,500 -1,588 Descending FlightAware ADS-B
Fri 07:24:02 PM 40.3074 -73.8443 105° East 325 374 9,900 -1,778 Descending FlightAware ADS-B
Fri 07:24:09 PM 40.3057 -73.8305 99° East 326 375 9,700 -1,636 Descending FlightAware ADS-B
Fri 07:24:24 PM 40.3039 -73.8019 95° East 328 377 9,300 -1,304 Descending FlightAware ADS-B
Fri 07:24:32 PM 40.3037 -73.7859 91° East 326 375 9,200 -1,091 Descending FlightAware ADS-B
Fri 07:24:46 PM 40.3049 -73.7581 87° East 325 374 8,900 -1,304 Descending FlightAware ADS-B
Fri 07:24:55 PM 40.3067 -73.7411 82° East 324 373 8,700 -1,250 Descending FlightAware ADS-B
Fri 07:25:10 PM 40.3114 -73.7120 78° East 320 368 8,400 -1,143 Descending FlightAware ADS-B
Fri 07:25:16 PM 40.3136 -73.6999 77° East 315 362 8,300 -1,000 Descending FlightAware ADS-B
Fri 07:25:28 PM 40.3200 -73.6793 68° East 311 358 8,100 -522 Descending FlightAware ADS-B
Fri 07:25:39 PM 40.3287 -73.6630 55° Northeast 303 349 8,100  Level FlightAware ADS-B
Fri 07:25:55 PM 40.3443 -73.6432 44° Northeast 300 345 8,100 -176 Level FlightAware ADS-B
Fri 07:26:13 PM 40.3637 -73.6204 42° Northeast 300 345 8,000 -649 Descending FlightAware ADS-B
Fri 07:26:32 PM 40.3829 -73.5980 42° Northeast 297 342 7,700 -1,029 Descending FlightAware ADS-B
Fri 07:26:48 PM 40.3998 -73.5793 40° Northeast 297 342 7,400 -1,250 Descending FlightAware ADS-B
Fri 07:26:56 PM 40.4088 -73.5712 34° Northeast 295 339 7,200 -367 Descending FlightAware ADS-B
Fri 07:27:37 PM 40.4559 -73.5337 31° Northeast 294 338 7,100 -95 Descending FlightAware ADS-B
Fri 07:27:59 PM 40.4817 -73.5138 30° Northeast 294 338 7,100 -133 Level FlightAware ADS-B
Fri 07:28:22 PM 40.5085 -73.4929 31° Northeast 294 338 7,000 -615 Descending FlightAware ADS-B
Fri 07:28:38 PM 40.5275 -73.4780 31° Northeast 292 336 6,700 -1,222 Descending FlightAware ADS-B
Fri 07:29:16 PM 40.5700 -73.4450 31° Northeast 291 335 5,900 -1,345 Descending FlightAware ADS-B
Fri 07:29:36 PM 40.5940 -73.4260 31° Northeast 290 334 5,400 -1,091 Descending FlightAware ADS-B
Fri 07:30:00 PM 40.6210 -73.4060 29° Northeast 289 333 5,100 -409 Descending FlightAware ADS-B
Fri 07:30:20 PM 40.6460 -73.3870 30° Northeast 288 331 5,100  Level FlightAware ADS-B
Fri 07:30:40 PM 40.6690 -73.3690 31° Northeast 290 334 5,100  Level FlightAware ADS-B
Fri 07:31:00 PM 40.6910 -73.3520 30° Northeast 290 334 5,100  Level FlightAware ADS-B
Fri 07:31:16 PM 40.7110 -73.3390 26° Northeast 287 330 5,100  Level FlightAware ADS-B
Fri 07:31:20 PM 40.7160 -73.3380 North 283 326 5,100  Level FlightAware ADS-B
Fri 07:31:52 PM 40.7530 -73.3550 341° North 258 297 5,100  Level FlightAware ADS-B
Fri 07:32:04 PM 40.7590 -73.3670 303° West 247 284 5,100  Level FlightAware ADS-B
Fri 07:32:22 PM 40.7690 -73.3910 299° West 229 264 5,100 -158 Level FlightAware ADS-B
Fri 07:32:42 PM 40.7790 -73.4160 298° West 212 244 5,000 -462 Descending FlightAware ADS-B
Fri 07:33:01 PM 40.7870 -73.4360 298° West 207 238 4,800 -789 Descending FlightAware ADS-B
Fri 07:33:20 PM 40.7960 -73.4580 298° West 205 236 4,500 -923 Descending FlightAware ADS-B
Fri 07:33:40 PM 40.8060 -73.4810 300° West 205 236 4,200 -1,000 Descending FlightAware ADS-B
Fri 07:33:56 PM 40.8130 -73.4980 299° West 205 236 3,900 -973 Descending FlightAware ADS-B
Fri 07:34:17 PM 40.8220 -73.5200 298° West 205 236 3,600 -857 Descending FlightAware ADS-B
Fri 07:34:24 PM 40.8240 -73.5290 286° West 202 232 3,500 -667 Descending FlightAware ADS-B
Fri 07:34:44 PM 40.8270 -73.5530 279° West 193 222 3,300 -529 Descending FlightAware ADS-B
Fri 07:34:58 PM 40.8260 -73.5680 265° West 184 212 3,200 -500 Descending FlightAware ADS-B
Fri 07:35:20 PM 40.8220 -73.5930 258° West 173 199 3,000 -667 Descending FlightAware ADS-B
Fri 07:35:34 PM 40.8190 -73.6050 252° West 170 196 2,800 -818 Descending FlightAware ADS-B
Fri 07:35:42 PM 40.8160 -73.6130 244° Southwest 171 197 2,700 -500 Descending FlightAware ADS-B
Fri 07:35:58 PM 40.8080 -73.6270 233° Southwest 160 184 2,600 -150 Descending FlightAware ADS-B
Fri 07:36:22 PM 40.7980 -73.6470 237° Southwest 174 200 2,600  Level FlightAware ADS-B
Fri 07:36:36 PM 40.7900 -73.6580 226° Southwest 177 204 2,600  Level FlightAware ADS-B
Fri 07:36:57 PM 40.7780 -73.6720 221° Southwest 179 206 2,600  Level FlightAware ADS-B
Fri 07:37:16 PM 40.7640 -73.6840 213° Southwest 171 197 2,600 -279 Level FlightAware ADS-B
Fri 07:37:40 PM 40.7490 -73.6950 209° Southwest 152 175 2,400 -500 Descending FlightAware ADS-B
Fri 07:37:52 PM 40.7420 -73.6990 203° Southwest 144 166 2,300 -649 Descending FlightAware ADS-B
Fri 07:38:17 PM 40.7280 -73.7090 208° Southwest 129 148 2,000 -652 Descending FlightAware ADS-B
Fri 07:38:38 PM 40.7170 -73.7170 209° Southwest 127 146 1,800 -727 Descending FlightAware ADS-B
Fri 07:38:50 PM 40.7110 -73.7210 207° Southwest 125 144 1,600 -750 Descending FlightAware ADS-B
Fri 07:39:10 PM 40.7000 -73.7280 206° Southwest 125 144 1,400 -600 Descending FlightAware ADS-B
Fri 07:39:30 PM 40.6900 -73.7360 211° Southwest 127 146 1,200 -649 Descending FlightAware ADS-B
Fri 07:39:47 PM 40.6810 -73.7420 207° Southwest 126 145 1,000 -667 Descending FlightAware ADS-B
Fri 07:40:06 PM 40.6720 -73.7490 211° Southwest 125 144 800 -615 Descending FlightAware ADS-B
Fri 07:40:26 PM 40.6620 -73.7560 208° Southwest 126 145 600 -667 Descending FlightAware ADS-B
Fri 07:40:42 PM 40.6530 -73.7620 207° Southwest 132 152 400 -833 Descending FlightAware ADS-B
Fri 07:41:02 PM 40.6430 -73.7700 211° Southwest 128 147 100 -900 Descending FlightAware ADS-B
Fri 07:41:22 PM 40.6330 -73.7770 208° Southwest 88 101 -300 Descending FlightAware ADS-B

Login

Don't have an account? Register now (free) for customized features, flight alerts, and more!